Time;durP1;ratioP1;P1;durP2;ratioP2;P2;SDS_P1;SDS_P2;PMS_P1;PMS_P2;Temp;Humidity;BMP_temperature;BMP_pressure;BME280_temperature;BME280_humidity;BME280_pressure;Samples;Min_cycle;Max_cycle;Signal;HPM_P1;HPM_P2
2021/03/09 00:01:33;;;;;;;15.77;6.40;;;8.50;57.50;;;;;;5065760;28;20201;-62
2021/03/09 00:03:59;;;;;;;24.40;7.60;;;8.50;57.50;;;;;;5065680;28;20041;-63
2021/03/09 00:06:25;;;;;;;11.60;6.55;;;8.50;57.50;;;;;;5065610;28;20016;-63
2021/03/09 00:08:50;;;;;;;16.23;6.55;;;8.40;57.40;;;;;;5065596;28;20027;-62
2021/03/09 00:11:16;;;;;;;15.73;7.20;;;8.50;57.50;;;;;;5065513;28;20048;-63
2021/03/09 00:13:41;;;;;;;14.18;6.15;;;8.50;57.60;;;;;;5065537;28;20067;-62
2021/03/09 00:16:07;;;;;;;10.05;6.20;;;8.40;57.50;;;;;;5065446;28;20146;-63
2021/03/09 00:18:33;;;;;;;15.27;7.78;;;8.50;57.60;;;;;;5065349;28;20092;-62
2021/03/09 00:20:58;;;;;;;14.02;7.30;;;8.40;57.60;;;;;;5065366;28;20059;-62
2021/03/09 00:23:24;;;;;;;13.35;6.93;;;8.40;57.50;;;;;;5065338;28;20023;-62
2021/03/09 00:25:50;;;;;;;15.73;7.03;;;8.40;57.60;;;;;;5065291;28;20036;-63
2021/03/09 00:28:20;;;;;;;12.52;6.85;;;8.40;57.60;;;;;;5065236;28;20025;-64
2021/03/09 00:30:46;;;;;;;15.48;6.70;;;8.40;57.60;;;;;;5065189;28;20047;-63
2021/03/09 00:33:11;;;;;;;20.52;7.50;;;8.40;57.60;;;;;;5065150;28;20039;-62
2021/03/09 00:35:37;;;;;;;14.38;6.25;;;8.40;57.60;;;;;;5065102;28;20025;-64
2021/03/09 00:38:03;;;;;;;19.38;7.13;;;8.40;57.60;;;;;;5064841;28;20091;-62
2021/03/09 00:40:28;;;;;;;14.77;6.47;;;8.40;57.70;;;;;;5064995;28;20025;-63
2021/03/09 00:42:54;;;;;;;15.23;7.80;;;8.40;57.60;;;;;;5064941;28;20564;-63
2021/03/09 00:45:20;;;;;;;20.13;7.32;;;8.40;57.60;;;;;;5064969;28;20286;-63
2021/03/09 00:47:45;;;;;;;14.95;6.32;;;8.40;57.70;;;;;;5064845;28;20028;-62
2021/03/09 00:50:11;;;;;;;14.80;6.95;;;8.40;57.60;;;;;;5064827;28;20029;-63
2021/03/09 00:52:37;;;;;;;18.23;7.28;;;8.40;57.70;;;;;;5064744;28;20020;-64
2021/03/09 00:55:03;;;;;;;13.80;6.70;;;8.40;57.70;;;;;;5064741;28;20066;-62
2021/03/09 00:57:29;;;;;;;14.80;7.05;;;8.40;57.60;;;;;;5064617;28;20213;-63
2021/03/09 00:59:55;;;;;;;14.68;6.93;;;8.40;57.70;;;;;;5064622;28;20013;-62
2021/03/09 01:02:20;;;;;;;14.93;7.35;;;8.30;57.60;;;;;;5064622;28;20025;-62
2021/03/09 01:04:46;;;;;;;12.18;6.25;;;8.30;57.70;;;;;;5064518;28;20371;-63
2021/03/09 01:07:12;;;;;;;15.48;7.30;;;8.30;57.70;;;;;;5064537;28;20049;-62
2021/03/09 01:09:37;;;;;;;14.80;6.70;;;8.30;57.70;;;;;;5064366;28;20052;-64
2021/03/09 01:12:03;;;;;;;15.73;7.45;;;8.30;57.80;;;;;;5064130;28;20088;-63
2021/03/09 01:14:29;;;;;;;11.65;6.38;;;8.30;57.70;;;;;;5063213;28;20024;-62
2021/03/09 01:16:55;;;;;;;17.05;6.80;;;8.30;57.80;;;;;;5064312;28;20017;-62
2021/03/09 01:19:20;;;;;;;11.45;5.85;;;8.30;57.80;;;;;;5064234;28;20029;-62
2021/03/09 01:21:46;;;;;;;15.77;6.93;;;8.30;57.80;;;;;;5064208;28;20052;-62
2021/03/09 01:24:12;;;;;;;12.32;6.55;;;8.30;57.80;;;;;;5064239;28;20075;-62
2021/03/09 01:26:37;;;;;;;18.13;7.40;;;8.30;57.80;;;;;;5064133;28;20043;-64
2021/03/09 01:29:03;;;;;;;13.10;6.05;;;8.30;57.80;;;;;;5064142;28;20339;-62
2021/03/09 01:31:30;;;;;;;13.88;7.00;;;8.30;57.80;;;;;;5064032;28;20031;-62
2021/03/09 01:33:55;;;;;;;18.58;6.95;;;8.30;57.80;;;;;;5064007;28;20329;-63
2021/03/09 01:36:21;;;;;;;14.70;7.13;;;8.30;57.80;;;;;;5064005;28;20130;-65
2021/03/09 01:38:47;;;;;;;15.32;6.68;;;8.30;57.90;;;;;;5063617;28;20352;-64
2021/03/09 01:41:13;;;;;;;18.30;7.32;;;8.30;57.80;;;;;;5063890;28;20032;-62
2021/03/09 01:43:39;;;;;;;15.27;6.55;;;8.30;57.80;;;;;;5063818;28;20059;-63
2021/03/09 01:46:05;;;;;;;14.32;6.57;;;8.30;57.80;;;;;;5063735;28;20012;-61
2021/03/09 01:48:42;;;;;;;15.65;7.10;;;8.20;57.80;;;;;;5063734;28;20194;-63
2021/03/09 01:51:09;;;;;;;13.02;7.18;;;8.20;57.80;;;;;;5063665;28;20025;-62
2021/03/09 01:53:34;;;;;;;14.85;7.22;;;8.20;58.40;;;;;;5063663;28;20021;-63
2021/03/09 01:56:00;;;;;;;14.02;6.95;;;8.20;57.80;;;;;;5063587;28;20021;-63
2021/03/09 01:58:29;;;;;;;13.82;5.85;;;8.30;57.90;;;;;;5063446;28;20074;-62
2021/03/09 02:00:54;;;;;;;10.20;6.15;;;8.20;57.80;;;;;;5063482;28;20059;-61
2021/03/09 02:03:20;;;;;;;13.57;6.75;;;8.20;57.80;;;;;;5063445;28;20021;-62
2021/03/09 02:05:46;;;;;;;11.32;6.15;;;8.20;57.70;;;;;;5063383;28;20024;-62
2021/03/09 02:08:12;;;;;;;12.68;6.35;;;8.20;57.80;;;;;;5063658;28;20032;-62
2021/03/09 02:10:38;;;;;;;13.15;7.22;;;8.20;57.90;;;;;;5063294;28;20386;-62
2021/03/09 02:13:25;;;;;;;13.68;6.68;;;8.20;58.40;;;;;;5063313;28;20025;-62
2021/03/09 02:16:02;;;;;;;13.80;6.30;;;8.20;57.80;;;;;;5063241;28;20052;-62
2021/03/09 02:18:35;;;;;;;11.55;6.43;;;8.20;57.80;;;;;;5063075;28;20096;-62
2021/03/09 02:21:10;;;;;;;13.93;7.93;;;8.20;57.80;;;;;;5063172;28;20093;-63
2021/03/09 02:24:07;;;;;;;10.25;5.78;;;8.20;57.80;;;;;;5062505;28;20020;-62
2021/03/09 02:26:49;;;;;;;11.45;6.28;;;8.20;57.90;;;;;;5061838;28;20017;-62
2021/03/09 02:29:29;;;;;;;10.93;6.22;;;8.20;57.80;;;;;;5062977;28;20017;-62
2021/03/09 02:31:56;;;;;;;13.13;6.57;;;8.20;57.90;;;;;;5062060;28;20021;-63
2021/03/09 02:34:31;;;;;;;14.40;6.90;;;8.20;57.90;;;;;;5062895;28;20025;-63
2021/03/09 02:37:01;;;;;;;13.93;6.15;;;8.20;57.90;;;;;;5062827;28;20219;-63
2021/03/09 02:39:28;;;;;;;11.07;6.35;;;8.20;57.90;;;;;;5062680;28;20108;-63
2021/03/09 02:42:00;;;;;;;17.75;9.35;;;8.10;57.80;;;;;;5062755;28;20317;-62
2021/03/09 02:44:26;;;;;;;18.20;9.30;;;8.20;57.90;;;;;;5062695;28;20339;-63
2021/03/09 02:46:52;;;;;;;13.77;6.30;;;8.20;57.90;;;;;;5062650;28;20032;-63
2021/03/09 02:49:19;;;;;;;12.45;6.13;;;8.10;57.80;;;;;;5062577;28;20096;-62
2021/03/09 02:51:47;;;;;;;14.32;6.95;;;8.10;57.90;;;;;;5062526;28;20025;-63
2021/03/09 02:54:15;;;;;;;11.73;6.72;;;8.10;57.90;;;;;;5062539;28;20021;-64
2021/03/09 02:56:43;;;;;;;9.27;6.20;;;8.20;57.90;;;;;;5062516;28;20021;-63
2021/03/09 02:59:12;;;;;;;10.88;6.70;;;8.20;57.90;;;;;;5062357;28;20031;-63
2021/03/09 03:01:41;;;;;;;15.30;6.90;;;8.10;57.90;;;;;;5062332;28;20036;-63
2021/03/09 03:04:10;;;;;;;10.70;6.78;;;8.10;57.80;;;;;;5062318;28;20032;-61
2021/03/09 03:06:38;;;;;;;13.80;6.65;;;8.10;57.90;;;;;;5062540;28;20229;-62
2021/03/09 03:09:04;;;;;;;13.23;7.18;;;8.10;57.80;;;;;;5062242;28;20029;-62
2021/03/09 03:11:31;;;;;;;10.85;5.57;;;8.10;57.90;;;;;;5062268;28;20378;-62
2021/03/09 03:14:04;;;;;;;11.20;6.22;;;8.10;57.80;;;;;;5062154;28;20074;-63
2021/03/09 03:16:31;;;;;;;11.98;6.30;;;8.10;57.80;;;;;;5062172;28;20017;-62
2021/03/09 03:19:01;;;;;;;9.40;5.38;;;8.10;57.90;;;;;;5061991;28;20053;-62
2021/03/09 03:21:29;;;;;;;14.82;6.68;;;8.10;57.90;;;;;;5062030;28;20025;-63
2021/03/09 03:23:59;;;;;;;13.82;5.70;;;8.10;57.90;;;;;;5062044;28;20017;-63
2021/03/09 03:26:27;;;;;;;11.80;6.57;;;8.10;57.90;;;;;;5062027;28;20020;-62
2021/03/09 03:28:55;;;;;;;10.68;5.72;;;8.10;57.90;;;;;;5061992;28;20044;-63
2021/03/09 03:31:21;;;;;;;13.27;6.50;;;8.10;57.90;;;;;;5061939;28;20020;-63
2021/03/09 03:33:48;;;;;;;10.73;5.82;;;8.10;58.00;;;;;;5061738;28;20028;-63
2021/03/09 03:36:14;;;;;;;9.48;6.28;;;8.10;58.00;;;;;;5061906;28;20076;-62
2021/03/09 03:38:41;;;;;;;9.25;5.38;;;8.10;58.00;;;;;;5061585;28;20049;-62
2021/03/09 03:41:09;;;;;;;11.70;6.53;;;8.10;58.00;;;;;;5061841;28;20067;-62
2021/03/09 03:43:35;;;;;;;12.50;6.80;;;8.00;58.00;;;;;;5061817;28;20043;-63
2021/03/09 03:46:02;;;;;;;12.60;5.90;;;8.00;58.00;;;;;;5061805;28;20017;-63
2021/03/09 03:48:32;;;;;;;10.98;5.90;;;8.10;58.00;;;;;;5061786;28;20028;-64
2021/03/09 03:50:59;;;;;;;12.52;6.65;;;8.10;58.00;;;;;;5061764;28;20328;-62
2021/03/09 03:53:46;;;;;;;11.43;6.10;;;8.10;58.10;;;;;;5061744;28;20339;-62
2021/03/09 03:56:33;;;;;;;10.65;6.00;;;8.00;57.90;;;;;;5061775;28;20240;-62
2021/03/09 03:59:16;;;;;;;12.48;6.72;;;8.00;58.00;;;;;;5061614;28;20020;-62
2021/03/09 04:01:44;;;;;;;15.15;6.85;;;8.00;58.00;;;;;;5061746;28;20021;-62
2021/03/09 04:04:12;;;;;;;13.65;6.88;;;8.00;58.00;;;;;;5061654;28;20013;-63
2021/03/09 04:06:43;;;;;;;10.73;5.80;;;8.00;58.00;;;;;;5061612;28;20324;-63
2021/03/09 04:09:09;;;;;;;11.65;6.07;;;8.00;58.00;;;;;;5061636;28;20040;-63
2021/03/09 04:11:37;;;;;;;14.02;6.45;;;8.00;58.10;;;;;;5061817;28;20024;-62
2021/03/09 04:14:03;;;;;;;10.57;6.30;;;8.00;58.00;;;;;;5061849;28;20032;-61
2021/03/09 04:16:31;;;;;;;12.63;6.40;;;8.00;58.10;;;;;;5061548;28;20054;-63
2021/03/09 04:19:00;;;;;;;9.10;5.65;;;8.00;58.10;;;;;;5061389;28;20025;-62
2021/03/09 04:21:27;;;;;;;9.65;5.38;;;8.00;57.90;;;;;;5061501;28;20013;-62
2021/03/09 04:23:54;;;;;;;8.93;5.35;;;8.00;58.00;;;;;;5061481;28;20044;-63
2021/03/09 04:26:21;;;;;;;9.35;5.88;;;8.00;58.00;;;;;;5061678;28;20043;-64
2021/03/09 04:28:48;;;;;;;9.48;5.88;;;8.00;58.00;;;;;;5061402;28;20032;-61
2021/03/09 04:31:18;;;;;;;10.63;5.28;;;8.00;58.00;;;;;;5061398;28;20037;-62
2021/03/09 04:33:46;;;;;;;13.52;6.03;;;8.00;58.00;;;;;;5061367;28;20017;-62
2021/03/09 04:36:13;;;;;;;9.32;6.28;;;8.00;58.00;;;;;;5061393;28;20045;-63
2021/03/09 04:38:39;;;;;;;9.48;5.80;;;8.00;57.90;;;;;;5061115;28;20033;-62
2021/03/09 04:41:05;;;;;;;9.45;5.85;;;8.00;57.90;;;;;;5061296;28;20017;-61
2021/03/09 04:43:32;;;;;;;10.77;6.35;;;8.00;57.90;;;;;;5061306;28;20021;-63
2021/03/09 04:45:58;;;;;;;12.38;5.63;;;8.00;57.90;;;;;;5062874;28;20359;-62
2021/03/09 04:48:24;;;;;;;11.32;5.47;;;7.90;58.00;;;;;;5064903;28;20117;-62
2021/03/09 04:50:51;;;;;;;9.60;5.50;;;7.90;58.00;;;;;;5064867;28;20088;-62
2021/03/09 04:53:17;;;;;;;11.45;5.82;;;7.90;58.00;;;;;;5065001;28;20033;-62
2021/03/09 04:55:43;;;;;;;11.82;6.05;;;7.90;58.10;;;;;;5064784;28;20526;-63
2021/03/09 04:58:09;;;;;;;10.27;5.30;;;7.90;58.00;;;;;;5064861;28;20024;-62
2021/03/09 05:00:34;;;;;;;11.20;5.63;;;7.90;58.00;;;;;;5064651;28;20313;-62
2021/03/09 05:03:00;;;;;;;9.07;5.28;;;7.90;58.00;;;;;;5064591;28;20021;-62
2021/03/09 05:05:26;;;;;;;10.40;5.80;;;7.90;58.10;;;;;;5064548;28;20017;-63
2021/03/09 05:07:52;;;;;;;15.23;6.72;;;7.90;58.20;;;;;;5064835;28;20032;-62
2021/03/09 05:10:19;;;;;;;12.45;5.90;;;7.90;58.10;;;;;;5064707;28;20029;-62
2021/03/09 05:12:49;;;;;;;9.77;5.28;;;7.90;58.10;;;;;;5064044;28;20044;-61
2021/03/09 05:15:17;;;;;;;8.32;5.13;;;7.90;58.10;;;;;;5064370;28;20024;-61
2021/03/09 05:17:42;;;;;;;9.77;6.10;;;7.90;58.20;;;;;;5064302;28;20017;-63
2021/03/09 05:20:11;;;;;;;8.25;5.72;;;7.90;58.20;;;;;;5064238;28;20021;-61
2021/03/09 05:22:38;;;;;;;9.35;5.38;;;7.90;58.30;;;;;;5064235;28;20025;-62
2021/03/09 05:25:14;;;;;;;9.18;5.35;;;7.90;58.10;;;;;;5064178;28;20237;-61
2021/03/09 05:27:42;;;;;;;8.85;5.57;;;7.90;58.10;;;;;;5064170;28;20043;-62
2021/03/09 05:30:10;;;;;;;8.40;5.97;;;7.90;58.10;;;;;;5064085;28;20017;-64
2021/03/09 05:32:36;;;;;;;11.07;5.70;;;7.80;58.10;;;;;;5064076;28;20024;-63
2021/03/09 05:35:04;;;;;;;7.88;5.03;;;7.90;58.10;;;;;;5064048;28;20390;-63
2021/03/09 05:37:29;;;;;;;7.70;4.97;;;7.90;58.10;;;;;;5063745;28;20051;-63
2021/03/09 05:39:55;;;;;;;9.55;5.20;;;7.80;58.10;;;;;;5063905;28;20257;-62
2021/03/09 05:42:21;;;;;;;10.10;5.32;;;7.80;58.10;;;;;;5063891;28;20037;-63
2021/03/09 05:44:50;;;;;;;11.25;5.68;;;7.90;58.20;;;;;;5063788;28;20198;-62
2021/03/09 05:47:16;;;;;;;10.32;5.75;;;7.80;58.10;;;;;;5063835;28;20017;-62
2021/03/09 05:49:41;;;;;;;10.65;5.35;;;7.80;58.00;;;;;;5063755;28;20036;-62
2021/03/09 05:52:09;;;;;;;7.95;5.25;;;7.90;58.10;;;;;;5063702;28;20040;-63
2021/03/09 05:54:35;;;;;;;7.10;5.03;;;7.90;58.10;;;;;;5063684;28;20181;-63
2021/03/09 05:57:01;;;;;;;8.55;5.28;;;7.90;58.00;;;;;;5063632;28;20044;-64
2021/03/09 05:59:27;;;;;;;9.82;5.35;;;7.80;58.10;;;;;;5063470;28;20053;-62
2021/03/09 06:01:53;;;;;;;8.13;5.15;;;7.80;58.00;;;;;;5063530;28;20025;-63
2021/03/09 06:04:22;;;;;;;12.98;6.15;;;7.80;58.10;;;;;;5063508;28;20012;-63
2021/03/09 06:06:48;;;;;;;13.05;5.60;;;7.80;58.10;;;;;;5063423;28;20024;-62
2021/03/09 06:09:35;;;;;;;8.95;5.80;;;7.80;58.00;;;;;;5063379;28;20032;-62
2021/03/09 06:12:12;;;;;;;9.85;4.90;;;7.80;58.00;;;;;;5063316;28;20020;-63
2021/03/09 06:14:56;;;;;;;10.10;5.50;;;7.80;58.10;;;;;;5063557;28;20114;-61
2021/03/09 06:17:29;;;;;;;10.00;5.28;;;7.80;58.10;;;;;;5063153;28;20044;-62
2021/03/09 06:19:55;;;;;;;12.43;5.63;;;7.80;58.00;;;;;;5063752;28;20009;-63
2021/03/09 06:22:37;;;;;;;11.63;5.72;;;7.80;58.20;;;;;;5063142;28;20016;-63
2021/03/09 06:25:05;;;;;;;9.75;5.65;;;7.80;58.20;;;;;;5063116;28;20028;-64
2021/03/09 06:27:32;;;;;;;8.65;4.88;;;7.80;58.00;;;;;;5063002;28;20013;-64
2021/03/09 06:29:58;;;;;;;5.97;4.50;;;7.80;58.10;;;;;;5062931;28;20013;-64
2021/03/09 06:32:25;;;;;;;7.97;5.00;;;7.80;58.10;;;;;;5062954;28;20013;-62
2021/03/09 06:34:53;;;;;;;11.07;5.85;;;7.80;58.10;;;;;;5062910;28;20035;-62
2021/03/09 06:37:23;;;;;;;10.73;5.88;;;7.80;58.10;;;;;;5062894;28;20056;-62
2021/03/09 06:40:03;;;;;;;8.52;5.13;;;7.80;58.00;;;;;;5062770;28;20232;-63
2021/03/09 06:42:38;;;;;;;9.43;5.05;;;7.80;58.00;;;;;;5063025;28;20028;-62
2021/03/09 06:45:09;;;;;;;8.52;5.80;;;7.80;57.90;;;;;;5062732;28;20062;-62
2021/03/09 06:47:36;;;;;;;7.25;4.90;;;7.80;58.00;;;;;;5062663;28;20066;-62
2021/03/09 06:50:04;;;;;;;8.25;4.85;;;7.80;58.10;;;;;;5062639;28;20088;-61
2021/03/09 06:52:30;;;;;;;8.93;4.32;;;7.80;58.10;;;;;;5062573;28;20080;-62
2021/03/09 06:54:56;;;;;;;6.63;4.18;;;7.80;57.90;;;;;;5062532;28;20248;-62
2021/03/09 06:57:23;;;;;;;11.70;5.55;;;7.80;57.90;;;;;;5062481;28;20025;-63
2021/03/09 06:59:55;;;;;;;10.55;5.80;;;7.90;58.50;;;;;;5062422;28;20366;-62
2021/03/09 07:02:24;;;;;;;8.93;5.45;;;7.90;57.70;;;;;;5062406;28;20024;-62
2021/03/09 07:05:06;;;;;;;8.02;5.00;;;8.00;57.60;;;;;;5062335;28;20017;-63
2021/03/09 07:07:36;;;;;;;9.10;4.57;;;8.00;57.30;;;;;;5062277;28;20029;-62
2021/03/09 07:10:06;;;;;;;8.02;5.32;;;8.00;57.30;;;;;;5062038;28;20040;-63
2021/03/09 07:12:34;;;;;;;10.63;5.45;;;8.00;57.30;;;;;;5062497;28;20021;-64
2021/03/09 07:15:00;;;;;;;6.32;4.53;;;8.00;57.40;;;;;;5062157;28;20017;-63
2021/03/09 07:17:30;;;;;;;7.85;4.78;;;8.00;57.40;;;;;;5062042;28;20080;-64
2021/03/09 07:19:58;;;;;;;8.07;5.15;;;8.00;57.30;;;;;;5062060;28;20033;-62
2021/03/09 07:22:26;;;;;;;6.00;4.10;;;8.00;57.20;;;;;;5062340;28;20032;-61
2021/03/09 07:25:13;;;;;;;9.80;5.55;;;8.00;57.20;;;;;;5062083;28;20401;-63
2021/03/09 07:27:39;;;;;;;9.57;5.03;;;8.00;57.10;;;;;;5062039;28;20021;-63
2021/03/09 07:30:07;;;;;;;7.68;4.80;;;8.00;57.30;;;;;;5061973;28;20377;-62
2021/03/09 07:32:36;;;;;;;6.35;4.60;;;8.00;57.20;;;;;;5062008;28;20024;-63
2021/03/09 07:35:02;;;;;;;7.25;4.63;;;8.00;57.10;;;;;;5061949;28;20029;-62
2021/03/09 07:37:28;;;;;;;6.38;4.57;;;8.00;57.10;;;;;;5061589;28;20217;-63
2021/03/09 07:39:54;;;;;;;8.27;5.35;;;8.00;57.10;;;;;;5062176;28;20033;-61
2021/03/09 07:42:20;;;;;;;9.52;5.20;;;8.00;57.10;;;;;;5061868;28;20021;-63
2021/03/09 07:44:48;;;;;;;7.93;5.00;;;8.00;57.40;;;;;;5061831;28;20028;-63
2021/03/09 07:47:16;;;;;;;9.60;5.53;;;7.90;57.30;;;;;;5060667;28;20017;-62
2021/03/09 07:49:44;;;;;;;6.60;4.38;;;8.00;57.40;;;;;;5061866;28;20028;-63
2021/03/09 07:52:12;;;;;;;9.50;4.18;;;7.90;57.40;;;;;;5061773;28;20020;-64
2021/03/09 07:54:38;;;;;;;6.90;4.50;;;8.00;57.40;;;;;;5061748;28;20032;-63
2021/03/09 07:57:19;;;;;;;7.40;5.07;;;7.90;57.40;;;;;;5061713;28;20346;-62
2021/03/09 08:00:05;;;;;;;8.52;4.88;;;8.00;57.40;;;;;;5061657;28;20052;-63
2021/03/09 08:02:58;;;;;;;7.07;4.10;;;8.00;57.30;;;;;;5061687;28;20013;-63
2021/03/09 08:05:28;;;;;;;8.48;4.68;;;8.00;57.20;;;;;;5061702;28;20025;-63
2021/03/09 08:08:04;;;;;;;8.07;4.45;;;8.00;57.10;;;;;;5061639;28;20020;-63
2021/03/09 08:10:29;;;;;;;8.63;4.50;;;8.10;57.10;;;;;;5061906;28;20017;-63
2021/03/09 08:13:16;;;;;;;6.35;4.07;;;8.10;57.10;;;;;;5061567;28;20067;-60
2021/03/09 08:15:42;;;;;;;11.68;5.38;;;8.10;57.10;;;;;;5061504;28;20332;-62
2021/03/09 08:18:17;;;;;;;7.75;4.07;;;8.10;57.10;;;;;;5061419;28;20084;-63
2021/03/09 08:20:58;;;;;;;7.15;4.13;;;8.10;57.10;;;;;;5063115;28;20507;-63
2021/03/09 08:23:36;;;;;;;8.93;4.57;;;8.10;57.10;;;;;;5065655;28;20021;-63
2021/03/09 08:26:06;;;;;;;8.48;5.05;;;8.00;57.20;;;;;;5065340;28;20029;-62
2021/03/09 08:28:31;;;;;;;10.73;4.65;;;8.00;57.30;;;;;;5065313;28;20033;-62
2021/03/09 08:31:09;;;;;;;6.90;4.22;;;8.00;57.40;;;;;;5065470;28;20028;-63
2021/03/09 08:33:38;;;;;;;7.43;4.32;;;8.00;57.40;;;;;;5065402;28;20016;-61
2021/03/09 08:36:28;;;;;;;8.15;4.32;;;8.00;57.50;;;;;;5065160;28;20021;-63
2021/03/09 08:39:08;;;;;;;8.07;4.70;;;8.00;57.50;;;;;;5064904;28;20113;-61
2021/03/09 08:41:36;;;;;;;7.57;4.50;;;8.00;57.50;;;;;;5065124;28;20028;-63
2021/03/09 08:44:20;;;;;;;6.93;4.68;;;8.00;57.60;;;;;;5065076;28;20025;-63
2021/03/09 08:47:05;;;;;;;8.32;4.40;;;8.00;57.60;;;;;;5065214;28;20045;-64
2021/03/09 08:49:33;;;;;;;8.07;4.53;;;8.00;57.60;;;;;;5064962;28;20025;-63
2021/03/09 08:52:00;;;;;;;7.40;4.40;;;8.00;57.60;;;;;;5064863;28;20248;-63
2021/03/09 08:54:40;;;;;;;8.35;4.57;;;8.00;57.50;;;;;;5064769;28;20024;-63
2021/03/09 08:57:17;;;;;;;6.97;4.40;;;8.00;57.40;;;;;;5064758;28;20329;-62
2021/03/09 08:59:43;;;;;;;8.25;4.32;;;8.00;57.40;;;;;;5064663;28;20029;-62
2021/03/09 09:02:16;;;;;;;7.20;4.55;;;8.00;57.40;;;;;;5064644;28;20297;-62
2021/03/09 09:05:06;;;;;;;6.40;4.45;;;8.00;57.40;;;;;;5064638;28;20070;-62
2021/03/09 09:07:39;;;;;;;6.72;4.22;;;8.10;57.40;;;;;;5064915;28;20025;-63
2021/03/09 09:10:18;;;;;;;5.43;4.15;;;8.10;57.50;;;;;;5064478;28;20209;-61
2021/03/09 09:12:49;;;;;;;7.47;4.28;;;8.10;57.40;;;;;;5064717;28;20174;-62
2021/03/09 09:15:18;;;;;;;10.15;4.60;;;8.10;57.40;;;;;;5064445;28;20017;-62
2021/03/09 09:17:45;;;;;;;6.82;4.28;;;8.10;57.30;;;;;;5064260;28;20030;-61
2021/03/09 09:20:13;;;;;;;7.95;4.15;;;8.10;57.40;;;;;;5064333;28;20097;-62
2021/03/09 09:22:39;;;;;;;9.20;4.53;;;8.10;57.30;;;;;;5064269;28;20016;-63
2021/03/09 09:25:08;;;;;;;6.30;4.32;;;8.10;57.40;;;;;;5064150;28;20013;-61
2021/03/09 09:27:46;;;;;;;6.53;3.70;;;8.10;57.40;;;;;;5064163;28;20025;-61
2021/03/09 09:30:17;;;;;;;7.03;4.53;;;8.10;57.40;;;;;;5064182;28;20029;-63
2021/03/09 09:32:48;;;;;;;7.13;4.22;;;8.20;57.40;;;;;;5063826;28;20025;-62
2021/03/09 09:35:14;;;;;;;6.07;4.20;;;8.10;57.40;;;;;;5064116;28;20019;-63
2021/03/09 09:37:56;;;;;;;7.30;4.43;;;8.10;57.40;;;;;;5063784;28;20040;-62
2021/03/09 09:40:36;;;;;;;6.55;4.38;;;8.10;57.40;;;;;;5064022;28;20029;-63
2021/03/09 09:43:08;;;;;;;7.28;4.60;;;8.10;57.30;;;;;;5063963;28;20021;-62
2021/03/09 09:45:48;;;;;;;5.53;4.00;;;8.20;57.40;;;;;;5063926;28;20024;-65
2021/03/09 09:48:23;;;;;;;8.52;4.43;;;8.20;57.40;;;;;;5064090;28;20027;-62
2021/03/09 09:50:51;;;;;;;4.53;3.50;;;8.20;57.40;;;;;;5063809;28;20142;-63
2021/03/09 09:53:29;;;;;;;6.85;4.90;;;8.20;57.40;;;;;;5063738;28;20036;-64
2021/03/09 09:55:55;;;;;;;4.63;3.53;;;8.20;57.40;;;;;;5062477;28;20021;-63
2021/03/09 09:58:22;;;;;;;6.75;4.00;;;8.20;57.40;;;;;;5063575;28;20079;-63
2021/03/09 10:00:55;;;;;;;8.80;4.15;;;8.20;57.30;;;;;;5063541;28;20021;-63
2021/03/09 10:03:21;;;;;;;5.50;3.95;;;8.20;57.30;;;;;;5063515;28;20016;-64
2021/03/09 10:05:47;;;;;;;9.32;4.68;;;8.20;57.30;;;;;;5063703;28;20044;-63
2021/03/09 10:08:33;;;;;;;5.15;3.97;;;8.30;57.30;;;;;;5063442;28;20252;-62
2021/03/09 10:11:03;;;;;;;7.63;4.18;;;8.30;57.40;;;;;;5063402;28;20025;-64
2021/03/09 10:13:29;;;;;;;7.85;4.03;;;8.30;57.40;;;;;;5063356;28;20023;-63
2021/03/09 10:15:55;;;;;;;7.70;4.22;;;8.30;57.30;;;;;;5063255;28;20021;-63
2021/03/09 10:18:32;;;;;;;6.82;4.45;;;8.30;57.30;;;;;;5063134;28;20025;-63
2021/03/09 10:21:02;;;;;;;8.45;4.40;;;8.30;57.30;;;;;;5063100;28;20208;-63
2021/03/09 10:23:29;;;;;;;6.20;4.15;;;8.30;57.20;;;;;;5063093;28;20020;-63
2021/03/09 10:26:03;;;;;;;6.50;4.15;;;8.30;57.30;;;;;;5063082;28;20335;-62
2021/03/09 10:28:31;;;;;;;6.05;4.18;;;8.30;57.30;;;;;;5063032;28;20308;-63
2021/03/09 10:30:57;;;;;;;7.03;4.20;;;8.30;57.30;;;;;;5063225;28;20025;-62
2021/03/09 10:33:23;;;;;;;7.43;4.53;;;8.30;57.40;;;;;;5062924;28;20264;-63
2021/03/09 10:36:10;;;;;;;4.93;3.45;;;8.30;57.50;;;;;;5062879;28;20036;-62
2021/03/09 10:38:36;;;;;;;6.70;4.20;;;8.30;57.50;;;;;;5061435;28;20384;-63
2021/03/09 10:41:03;;;;;;;7.88;3.80;;;8.30;57.30;;;;;;5062823;28;20040;-63
2021/03/09 10:43:39;;;;;;;5.82;3.90;;;8.30;57.30;;;;;;5062297;28;20206;-63
2021/03/09 10:46:04;;;;;;;5.32;3.45;;;8.40;57.40;;;;;;5062650;28;20017;-63
2021/03/09 10:48:30;;;;;;;5.43;3.75;;;8.40;57.30;;;;;;5062665;28;20028;-63
2021/03/09 10:50:56;;;;;;;9.00;4.93;;;8.40;57.30;;;;;;5062580;28;20020;-63
2021/03/09 10:53:21;;;;;;;5.65;3.72;;;8.40;57.30;;;;;;5062541;28;20036;-62
2021/03/09 10:55:47;;;;;;;6.28;4.00;;;8.40;57.30;;;;;;5062462;28;20032;-62
2021/03/09 10:58:12;;;;;;;6.45;3.92;;;8.40;57.20;;;;;;5062411;28;20038;-63
2021/03/09 11:00:38;;;;;;;7.40;3.80;;;8.40;57.20;;;;;;5062377;28;20035;-62
2021/03/09 11:03:04;;;;;;;6.43;4.05;;;8.50;57.20;;;;;;5062374;28;20036;-62
2021/03/09 11:05:29;;;;;;;6.75;4.60;;;8.40;57.20;;;;;;5062368;28;20020;-63
2021/03/09 11:07:57;;;;;;;6.03;4.07;;;8.50;57.30;;;;;;5062275;28;20080;-63
2021/03/09 11:10:22;;;;;;;6.68;4.20;;;8.50;57.20;;;;;;5062282;28;20021;-63
2021/03/09 11:12:48;;;;;;;6.10;4.10;;;8.50;57.20;;;;;;5062229;28;20024;-62
2021/03/09 11:15:14;;;;;;;7.28;3.92;;;8.50;57.20;;;;;;5062167;28;20020;-63
2021/03/09 11:17:39;;;;;;;5.28;3.53;;;8.50;57.20;;;;;;5062108;28;20021;-64
2021/03/09 11:20:07;;;;;;;5.90;4.07;;;8.50;57.20;;;;;;5062104;28;20021;-62
2021/03/09 11:22:33;;;;;;;6.10;3.33;;;8.50;57.20;;;;;;5062116;28;20118;-62
2021/03/09 11:24:58;;;;;;;6.05;4.60;;;8.50;57.20;;;;;;5062079;28;20029;-62
2021/03/09 11:27:24;;;;;;;5.50;3.65;;;8.50;57.10;;;;;;5062072;28;20243;-62
2021/03/09 11:29:50;;;;;;;5.88;4.10;;;8.50;57.10;;;;;;5061897;28;20021;-62
2021/03/09 11:32:16;;;;;;;7.35;4.55;;;8.50;57.10;;;;;;5061957;28;20100;-62
2021/03/09 11:34:42;;;;;;;6.15;3.95;;;8.60;57.10;;;;;;5061970;28;20036;-62
2021/03/09 11:37:07;;;;;;;5.75;4.07;;;8.60;57.10;;;;;;5061676;28;20020;-63
2021/03/09 11:39:33;;;;;;;5.75;3.65;;;8.60;57.10;;;;;;5061925;28;20029;-62
2021/03/09 11:41:59;;;;;;;6.10;3.97;;;8.60;57.20;;;;;;5062088;28;20016;-63
2021/03/09 11:44:25;;;;;;;4.10;3.08;;;8.60;57.10;;;;;;5061847;28;20047;-61
2021/03/09 11:46:53;;;;;;;5.25;3.58;;;8.60;57.20;;;;;;5061828;28;20017;-61
2021/03/09 11:49:18;;;;;;;6.90;3.90;;;8.60;57.10;;;;;;5061762;28;20033;-62
2021/03/09 11:51:44;;;;;;;4.45;3.53;;;8.60;57.10;;;;;;5060590;28;20025;-62
2021/03/09 11:54:12;;;;;;;6.13;3.75;;;8.60;57.10;;;;;;5062277;28;20027;-62
2021/03/09 11:56:38;;;;;;;7.13;3.58;;;8.60;57.10;;;;;;5065903;28;20048;-62
2021/03/09 11:59:03;;;;;;;7.68;4.15;;;8.70;57.20;;;;;;5065804;28;20193;-62
2021/03/09 12:01:29;;;;;;;5.88;3.60;;;8.70;57.10;;;;;;5065844;28;20055;-62
2021/03/09 12:03:55;;;;;;;4.53;3.13;;;8.70;57.10;;;;;;5065764;28;20016;-62
2021/03/09 12:06:21;;;;;;;6.30;3.92;;;8.70;57.20;;;;;;5065728;28;20029;-62
2021/03/09 12:08:47;;;;;;;4.85;3.13;;;8.70;57.10;;;;;;5065671;28;20029;-62
2021/03/09 12:11:13;;;;;;;6.78;3.58;;;8.70;57.10;;;;;;5065616;28;20252;-61
2021/03/09 12:13:39;;;;;;;6.30;3.60;;;8.70;57.10;;;;;;5065594;28;20033;-63
2021/03/09 12:16:05;;;;;;;7.50;4.32;;;8.70;57.10;;;;;;5065536;28;20363;-63
2021/03/09 12:18:31;;;;;;;7.63;4.28;;;8.70;57.10;;;;;;5065457;28;20067;-63
2021/03/09 12:20:56;;;;;;;5.10;3.80;;;8.70;57.00;;;;;;5064241;28;20021;-61
2021/03/09 12:23:24;;;;;;;7.68;3.65;;;8.80;57.70;;;;;;5065427;28;20024;-63
2021/03/09 12:25:50;;;;;;;7.40;4.00;;;8.70;57.00;;;;;;5065617;28;20025;-63
2021/03/09 12:28:15;;;;;;;6.55;3.45;;;8.80;57.00;;;;;;5065327;28;20208;-63
2021/03/09 12:30:41;;;;;;;5.38;4.47;;;8.80;57.10;;;;;;5065298;28;20029;-63
2021/03/09 12:33:07;;;;;;;5.63;3.90;;;8.80;57.00;;;;;;5065221;28;20028;-62
2021/03/09 12:35:32;;;;;;;6.20;3.70;;;8.80;57.00;;;;;;5065216;28;20029;-62
2021/03/09 12:37:58;;;;;;;5.32;3.40;;;8.80;57.00;;;;;;5064893;28;20049;-63
2021/03/09 12:40:24;;;;;;;6.10;3.72;;;8.80;57.00;;;;;;5065121;28;20240;-63
2021/03/09 12:42:50;;;;;;;6.30;4.00;;;8.80;57.00;;;;;;5065061;28;20075;-62
2021/03/09 12:45:18;;;;;;;4.68;3.70;;;8.80;56.90;;;;;;5065003;28;20042;-62
2021/03/09 12:47:43;;;;;;;6.40;4.00;;;8.80;56.90;;;;;;5063884;28;20024;-60
2021/03/09 12:50:10;;;;;;;11.30;4.05;;;8.90;56.90;;;;;;5064951;28;20019;-62
2021/03/09 12:52:37;;;;;;;5.30;3.63;;;8.90;57.00;;;;;;5064858;28;20079;-62
2021/03/09 12:55:08;;;;;;;5.07;3.67;;;8.90;56.90;;;;;;5064896;28;20080;-62
2021/03/09 12:57:34;;;;;;;7.45;4.00;;;8.90;56.80;;;;;;5064702;28;20052;-62
2021/03/09 12:59:59;;;;;;;4.75;3.33;;;8.90;56.80;;;;;;5064759;28;20407;-63
2021/03/09 13:02:25;;;;;;;4.72;3.25;;;8.90;56.80;;;;;;5064692;28;20024;-63